Time;durP1;ratioP1;P1;durP2;ratioP2;P2;SDS_P1;SDS_P2;PMS_P1;PMS_P2;Temp;Humidity;BMP_temperature;BMP_pressure;BME280_temperature;BME280_humidity;BME280_pressure;Samples;Min_cycle;Max_cycle;Signal;HPM_P1;HPM_P2
2022/03/14 00:00:19;;;;;;;19.33;6.50;;;1.70;62.20;;;;;;4142584;28;20357;-77
2022/03/14 00:02:19;;;;;;;14.63;5.55;;;1.70;62.30;;;;;;4161381;28;20124;-78
2022/03/14 00:04:20;;;;;;;16.20;7.05;;;1.70;62.30;;;;;;4153203;28;20121;-77
2022/03/14 00:06:21;;;;;;;17.73;6.60;;;1.70;62.50;;;;;;4159201;28;20135;-77
2022/03/14 00:08:24;;;;;;;14.35;6.35;;;1.70;62.50;;;;;;4155029;28;20616;-77
2022/03/14 00:10:24;;;;;;;17.27;5.95;;;1.60;62.60;;;;;;4160371;28;20085;-77
2022/03/14 00:12:25;;;;;;;17.00;6.75;;;1.60;62.70;;;;;;4156533;28;20085;-77
2022/03/14 00:14:26;;;;;;;13.52;6.13;;;1.60;62.60;;;;;;4153841;28;20021;-77
2022/03/14 00:16:28;;;;;;;21.83;5.85;;;1.60;62.30;;;;;;4143395;28;20026;-77
2022/03/14 00:18:29;;;;;;;14.80;6.57;;;1.60;62.20;;;;;;4157625;28;20025;-77
2022/03/14 00:20:29;;;;;;;18.83;6.30;;;1.50;62.10;;;;;;4153088;28;20018;-78
2022/03/14 00:22:31;;;;;;;13.98;6.00;;;1.60;62.20;;;;;;4155133;28;20422;-77
2022/03/14 00:24:32;;;;;;;17.48;6.60;;;1.50;62.40;;;;;;4162694;28;20542;-78
2022/03/14 00:26:33;;;;;;;14.57;6.03;;;1.50;62.40;;;;;;4146823;28;20025;-77
2022/03/14 00:28:33;;;;;;;14.18;6.05;;;1.50;62.50;;;;;;4140828;28;20407;-77
2022/03/14 00:30:34;;;;;;;15.90;6.05;;;1.40;62.30;;;;;;4159492;28;20168;-77
2022/03/14 00:32:35;;;;;;;16.88;6.45;;;1.40;62.30;;;;;;4174641;28;20033;-77
2022/03/14 00:34:35;;;;;;;15.27;6.68;;;1.40;62.50;;;;;;4173247;28;20017;-77
2022/03/14 00:36:36;;;;;;;15.95;6.43;;;1.40;62.40;;;;;;4153627;28;20498;-78
2022/03/14 00:38:37;;;;;;;16.17;6.22;;;1.40;62.30;;;;;;4174942;28;20017;-77
2022/03/14 00:40:38;;;;;;;15.70;6.57;;;1.30;62.40;;;;;;4141343;28;20129;-77
2022/03/14 00:42:39;;;;;;;18.55;6.57;;;1.30;62.50;;;;;;4154845;28;20034;-77
2022/03/14 00:44:41;;;;;;;18.23;6.50;;;1.40;62.60;;;;;;4158072;28;20104;-77
2022/03/14 00:46:43;;;;;;;14.57;5.85;;;1.30;62.50;;;;;;4156488;28;20021;-77
2022/03/14 00:48:44;;;;;;;16.17;6.25;;;1.30;62.50;;;;;;4153113;28;20033;-77
2022/03/14 00:50:45;;;;;;;17.02;5.97;;;1.30;62.80;;;;;;4143146;28;20440;-77
2022/03/14 00:52:46;;;;;;;20.05;6.40;;;1.30;62.60;;;;;;4172396;28;20036;-77
2022/03/14 00:54:46;;;;;;;15.77;5.70;;;1.30;62.60;;;;;;4173167;28;20426;-77
2022/03/14 00:56:47;;;;;;;14.70;6.05;;;1.30;62.60;;;;;;4170174;28;20025;-77
2022/03/14 00:58:48;;;;;;;16.13;5.80;;;1.40;63.70;;;;;;4157216;28;20506;-77
2022/03/14 01:00:49;;;;;;;14.18;5.57;;;1.30;62.90;;;;;;4187432;28;20023;-77
2022/03/14 01:02:50;;;;;;;14.13;5.70;;;1.30;63.00;;;;;;4167720;28;20021;-76
2022/03/14 01:04:51;;;;;;;13.20;5.93;;;1.30;63.10;;;;;;4172560;28;20121;-76
2022/03/14 01:06:51;;;;;;;12.93;5.10;;;1.30;63.10;;;;;;4170386;28;20021;-76
2022/03/14 01:08:52;;;;;;;15.07;6.05;;;1.30;63.00;;;;;;4138603;28;20415;-77
2022/03/14 01:10:53;;;;;;;14.82;6.00;;;1.30;62.90;;;;;;4163488;28;20025;-76
2022/03/14 01:12:54;;;;;;;12.93;5.93;;;1.30;62.60;;;;;;4157691;28;20031;-77
2022/03/14 01:14:55;;;;;;;12.15;5.18;;;1.30;62.40;;;;;;4171738;28;20029;-76
2022/03/14 01:16:56;;;;;;;12.40;5.40;;;1.30;62.30;;;;;;4170733;28;20152;-77
2022/03/14 01:18:57;;;;;;;15.18;5.72;;;1.20;62.00;;;;;;4140458;28;20141;-77
2022/03/14 01:20:58;;;;;;;10.93;5.10;;;1.20;61.90;;;;;;4167689;28;20197;-76
2022/03/14 01:22:58;;;;;;;12.60;5.70;;;1.20;61.80;;;;;;4141814;28;20069;-77
2022/03/14 01:24:59;;;;;;;15.02;5.97;;;1.20;61.60;;;;;;4173345;28;20033;-77
2022/03/14 01:26:59;;;;;;;16.13;5.80;;;1.10;61.60;;;;;;4173617;28;20029;-77
2022/03/14 01:29:02;;;;;;;14.50;6.28;;;1.10;61.60;;;;;;4137315;28;20034;-78
2022/03/14 01:31:03;;;;;;;14.57;5.82;;;1.10;61.80;;;;;;4174042;28;20095;-78
2022/03/14 01:33:03;;;;;;;19.55;5.93;;;1.10;62.00;;;;;;4139481;28;20022;-76
2022/03/14 01:35:04;;;;;;;15.57;5.93;;;1.10;62.10;;;;;;4173627;28;20029;-77
2022/03/14 01:37:05;;;;;;;14.10;6.00;;;1.10;62.30;;;;;;4139393;28;20018;-77
2022/03/14 01:39:06;;;;;;;13.57;5.60;;;1.10;62.60;;;;;;4168447;28;20100;-77
2022/03/14 01:41:06;;;;;;;13.25;5.53;;;1.10;62.50;;;;;;4173990;28;20121;-77
2022/03/14 01:43:07;;;;;;;14.20;5.70;;;1.10;62.30;;;;;;4159656;28;20268;-77
2022/03/14 01:45:08;;;;;;;10.52;5.10;;;1.10;62.10;;;;;;4174929;28;20394;-77
2022/03/14 01:47:08;;;;;;;13.30;5.50;;;1.10;61.80;;;;;;4171124;28;20036;-78
2022/03/14 01:49:11;;;;;;;14.68;5.70;;;1.00;61.50;;;;;;4152394;28;20026;-77
2022/03/14 01:51:13;;;;;;;14.85;5.95;;;1.00;61.40;;;;;;4156838;28;20574;-77
2022/03/14 01:53:14;;;;;;;16.30;6.05;;;1.00;61.40;;;;;;4153701;28;20029;-78
2022/03/14 01:55:14;;;;;;;16.70;6.30;;;1.00;61.20;;;;;;4139622;28;20377;-77
2022/03/14 01:57:16;;;;;;;23.75;6.53;;;1.00;61.30;;;;;;4177016;28;20020;-77
2022/03/14 01:59:17;;;;;;;17.38;6.38;;;0.90;61.50;;;;;;4143486;28;20026;-77
2022/03/14 02:01:21;;;;;;;14.07;6.35;;;0.90;61.50;;;;;;4143173;28;20048;-77
2022/03/14 02:03:21;;;;;;;13.93;6.07;;;0.90;61.50;;;;;;4145626;28;20034;-77
2022/03/14 02:05:22;;;;;;;14.23;6.07;;;0.90;61.40;;;;;;4148540;28;20087;-77
2022/03/14 02:07:23;;;;;;;15.60;6.80;;;0.80;61.20;;;;;;4180505;28;20052;-77
2022/03/14 02:09:24;;;;;;;16.50;6.32;;;0.90;61.20;;;;;;4141114;28;20546;-77
2022/03/14 02:11:25;;;;;;;12.30;5.68;;;0.80;61.20;;;;;;4146265;28;20037;-76
2022/03/14 02:13:26;;;;;;;18.00;5.85;;;0.80;61.10;;;;;;4129374;28;20054;-77
2022/03/14 02:15:26;;;;;;;15.30;5.95;;;0.80;61.10;;;;;;4158841;28;20553;-77
2022/03/14 02:17:27;;;;;;;15.73;6.10;;;0.70;61.00;;;;;;4139652;28;20137;-77
2022/03/14 02:19:27;;;;;;;14.82;7.03;;;0.70;61.20;;;;;;4169378;28;20021;-77
2022/03/14 02:21:28;;;;;;;13.40;6.80;;;0.70;61.50;;;;;;4173734;28;20108;-77
2022/03/14 02:23:28;;;;;;;16.35;6.53;;;0.70;61.70;;;;;;4159580;28;20435;-77
2022/03/14 02:25:29;;;;;;;16.92;6.35;;;0.70;61.60;;;;;;4144762;28;20257;-77
2022/03/14 02:27:30;;;;;;;16.98;6.88;;;0.60;61.70;;;;;;4160370;28;20025;-77
2022/03/14 02:29:31;;;;;;;16.27;7.32;;;0.60;62.00;;;;;;4173571;28;20031;-77
2022/03/14 02:31:31;;;;;;;17.08;7.60;;;0.60;62.30;;;;;;4158557;28;20061;-77
2022/03/14 02:33:32;;;;;;;14.40;6.55;;;0.60;62.70;;;;;;4175155;28;20367;-77
2022/03/14 02:35:34;;;;;;;20.35;7.70;;;0.60;62.80;;;;;;4172557;28;20425;-77
2022/03/14 02:37:35;;;;;;;19.35;8.02;;;0.60;63.20;;;;;;4140835;28;20445;-77
2022/03/14 02:39:38;;;;;;;27.00;7.00;;;0.60;63.20;;;;;;4140371;28;20029;-77
2022/03/14 02:41:39;;;;;;;17.40;7.38;;;0.60;63.10;;;;;;4189131;28;20252;-77
2022/03/14 02:43:39;;;;;;;19.08;7.38;;;0.60;63.10;;;;;;4158244;28;20104;-78
2022/03/14 02:45:41;;;;;;;22.67;7.38;;;0.60;63.00;;;;;;4143506;28;20041;-77
2022/03/14 02:47:42;;;;;;;17.60;7.75;;;0.60;62.90;;;;;;4175897;28;20332;-77
2022/03/14 02:49:42;;;;;;;20.58;7.60;;;0.50;62.80;;;;;;4143655;28;20110;-77
2022/03/14 02:51:43;;;;;;;24.48;7.75;;;0.60;63.20;;;;;;4175161;28;20497;-77
2022/03/14 02:53:44;;;;;;;21.00;7.95;;;0.60;63.40;;;;;;4169546;28;20087;-77
2022/03/14 02:55:44;;;;;;;24.75;8.23;;;0.60;63.20;;;;;;4159002;28;20031;-77
2022/03/14 02:57:45;;;;;;;18.75;8.23;;;0.60;63.60;;;;;;4159641;28;20064;-78
2022/03/14 02:59:48;;;;;;;20.40;7.95;;;0.60;63.60;;;;;;4149484;28;20071;-78
2022/03/14 03:01:49;;;;;;;20.30;8.77;;;0.60;63.70;;;;;;4175294;28;20028;-78
2022/03/14 03:03:50;;;;;;;17.58;7.85;;;0.60;64.00;;;;;;4149790;28;20020;-78
2022/03/14 03:05:51;;;;;;;23.20;9.63;;;0.60;63.90;;;;;;4176737;28;20032;-78
2022/03/14 03:07:56;;;;;;;26.30;8.93;;;0.60;64.20;;;;;;4174582;28;20030;-78
2022/03/14 03:09:57;;;;;;;24.30;9.25;;;0.60;64.30;;;;;;4172369;28;20125;-78
2022/03/14 03:12:01;;;;;;;23.73;9.20;;;0.70;64.50;;;;;;4175090;28;20029;-78
2022/03/14 03:14:02;;;;;;;18.65;8.57;;;0.60;64.60;;;;;;4158853;28;20721;-78
2022/03/14 03:16:03;;;;;;;27.52;10.07;;;0.60;64.40;;;;;;4153935;28;20721;-77
2022/03/14 03:18:04;;;;;;;23.40;8.70;;;0.60;64.90;;;;;;4161947;28;21650;-77
2022/03/14 03:20:06;;;;;;;19.00;7.82;;;0.70;64.00;;;;;;4154511;28;20414;-77
2022/03/14 03:22:06;;;;;;;18.83;8.20;;;0.60;63.70;;;;;;4154066;28;20104;-77
2022/03/14 03:24:07;;;;;;;26.38;8.23;;;0.60;63.60;;;;;;4176292;28;20025;-77
2022/03/14 03:26:08;;;;;;;18.10;8.38;;;0.60;63.30;;;;;;4139789;28;20474;-77
2022/03/14 03:28:09;;;;;;;16.98;7.40;;;0.60;63.20;;;;;;4170741;28;20041;-77
2022/03/14 03:30:10;;;;;;;23.73;8.70;;;0.60;63.10;;;;;;4153696;28;20029;-77
2022/03/14 03:32:10;;;;;;;21.38;8.57;;;0.60;63.10;;;;;;4176751;28;20406;-77
2022/03/14 03:34:11;;;;;;;19.23;8.73;;;0.50;62.80;;;;;;4142368;28;20029;-77
2022/03/14 03:36:11;;;;;;;26.23;10.30;;;0.50;62.80;;;;;;4175037;28;20029;-77
2022/03/14 03:38:12;;;;;;;23.70;9.52;;;0.40;63.10;;;;;;4157160;28;20551;-77
2022/03/14 03:40:12;;;;;;;23.20;9.55;;;0.40;63.00;;;;;;4176196;28;20270;-77
2022/03/14 03:42:13;;;;;;;26.45;9.63;;;0.40;63.30;;;;;;4155377;28;20038;-77
2022/03/14 03:44:14;;;;;;;25.38;8.82;;;0.40;63.80;;;;;;4178882;28;20033;-77
2022/03/14 03:46:14;;;;;;;21.77;8.93;;;0.40;64.00;;;;;;4144365;28;20030;-77
2022/03/14 03:48:15;;;;;;;27.70;9.73;;;0.40;64.10;;;;;;4152647;28;20079;-78
2022/03/14 03:50:16;;;;;;;24.63;10.13;;;0.40;64.10;;;;;;4160542;28;20034;-77
2022/03/14 03:52:16;;;;;;;25.42;10.27;;;0.30;63.90;;;;;;4159165;28;20056;-77
2022/03/14 03:54:17;;;;;;;21.88;9.75;;;0.30;63.70;;;;;;4161420;28;20040;-77
2022/03/14 03:56:17;;;;;;;22.63;9.68;;;0.30;63.60;;;;;;4157631;28;20111;-77
2022/03/14 03:58:18;;;;;;;27.52;11.20;;;0.30;64.10;;;;;;4156232;28;20033;-76
2022/03/14 04:00:19;;;;;;;27.23;10.27;;;0.30;64.40;;;;;;4176026;28;20033;-77
2022/03/14 04:02:20;;;;;;;27.13;10.77;;;0.30;64.50;;;;;;4172067;28;20572;-77
2022/03/14 04:04:21;;;;;;;25.38;9.88;;;0.30;64.70;;;;;;4162701;28;20037;-77
2022/03/14 04:06:25;;;;;;;25.67;10.23;;;0.40;64.80;;;;;;4173945;28;20509;-77
2022/03/14 04:08:30;;;;;;;23.83;10.50;;;0.40;65.00;;;;;;4172188;28;20375;-77
2022/03/14 04:10:31;;;;;;;23.30;9.98;;;0.30;64.90;;;;;;4173875;28;20021;-77
2022/03/14 04:12:32;;;;;;;23.77;10.63;;;0.30;65.30;;;;;;4188617;28;20036;-77
2022/03/14 04:14:32;;;;;;;25.55;10.68;;;0.40;65.30;;;;;;4159347;28;20120;-77
2022/03/14 04:16:33;;;;;;;34.65;11.32;;;0.30;65.40;;;;;;4174032;28;20267;-78
2022/03/14 04:18:34;;;;;;;25.02;10.57;;;0.40;65.40;;;;;;4155450;28;20124;-77
2022/03/14 04:20:36;;;;;;;25.48;9.73;;;0.40;65.50;;;;;;4160516;28;20128;-77
2022/03/14 04:22:39;;;;;;;24.05;10.20;;;0.40;65.50;;;;;;4177686;28;20401;-77
2022/03/14 04:24:40;;;;;;;24.75;10.23;;;0.40;65.50;;;;;;4159170;28;20033;-77
2022/03/14 04:26:41;;;;;;;25.48;10.75;;;0.40;65.20;;;;;;4147711;28;20031;-77
2022/03/14 04:28:42;;;;;;;26.73;10.32;;;0.40;65.10;;;;;;4177965;28;20111;-77
2022/03/14 04:30:42;;;;;;;31.95;10.85;;;0.30;64.80;;;;;;4145973;28;20062;-77
2022/03/14 04:32:44;;;;;;;24.73;10.60;;;0.30;64.60;;;;;;4179893;28;20478;-77
2022/03/14 04:34:44;;;;;;;28.85;12.20;;;0.30;64.80;;;;;;4158649;28;20060;-77
2022/03/14 04:36:49;;;;;;;27.83;11.70;;;0.40;65.10;;;;;;4181009;28;20418;-77
2022/03/14 04:38:49;;;;;;;28.00;11.32;;;0.30;65.50;;;;;;4158237;28;20238;-77
2022/03/14 04:40:50;;;;;;;30.30;11.43;;;0.30;65.70;;;;;;4144717;28;20048;-77
2022/03/14 04:42:50;;;;;;;27.35;10.45;;;0.30;65.70;;;;;;4159795;28;20029;-78
2022/03/14 04:44:52;;;;;;;26.48;10.75;;;0.30;65.60;;;;;;4174072;28;20025;-77
2022/03/14 04:46:53;;;;;;;25.38;10.27;;;0.30;65.50;;;;;;4176339;28;20393;-77
2022/03/14 04:48:53;;;;;;;24.25;10.40;;;0.30;65.40;;;;;;4176425;28;20120;-77
2022/03/14 04:50:56;;;;;;;26.95;9.77;;;0.30;65.30;;;;;;4182995;28;20043;-78
2022/03/14 04:52:57;;;;;;;38.00;10.25;;;0.30;65.20;;;;;;4179738;28;20060;-78
2022/03/14 04:54:57;;;;;;;25.92;10.20;;;0.30;65.10;;;;;;4162646;28;20030;-77
2022/03/14 04:56:58;;;;;;;28.00;10.52;;;0.30;64.90;;;;;;4159283;28;20390;-76
2022/03/14 04:58:59;;;;;;;30.20;10.80;;;0.30;64.80;;;;;;4173322;28;20079;-77
2022/03/14 05:01:00;;;;;;;24.40;10.35;;;0.20;64.70;;;;;;4145375;28;20446;-77
2022/03/14 05:03:01;;;;;;;31.15;12.07;;;0.20;64.60;;;;;;4137938;28;20031;-78
2022/03/14 05:05:02;;;;;;;32.35;11.82;;;0.20;64.80;;;;;;4175726;28;20025;-78
2022/03/14 05:07:03;;;;;;;24.60;11.73;;;0.10;65.00;;;;;;4178058;28;20029;-78
2022/03/14 05:09:05;;;;;;;28.13;11.50;;;0.10;65.30;;;;;;4142026;28;20041;-77
2022/03/14 05:11:06;;;;;;;33.83;11.48;;;0.10;65.50;;;;;;4158105;28;20025;-78
2022/03/14 05:13:06;;;;;;;31.10;11.18;;;0.10;65.50;;;;;;4153435;28;20101;-78
2022/03/14 05:15:07;;;;;;;28.02;11.40;;;0.00;65.50;;;;;;4162682;28;20025;-78
2022/03/14 05:17:08;;;;;;;29.52;12.05;;;0.00;65.40;;;;;;4157151;28;20028;-78
2022/03/14 05:19:09;;;;;;;25.88;11.38;;;0.00;65.30;;;;;;4157781;28;20406;-77
2022/03/14 05:21:10;;;;;;;28.38;11.80;;;0.00;65.20;;;;;;4172807;28;20029;-78
2022/03/14 05:23:11;;;;;;;32.75;11.98;;;-0.10;65.40;;;;;;4160383;28;20028;-78
2022/03/14 05:25:11;;;;;;;31.27;12.45;;;-0.10;65.60;;;;;;4156014;28;20092;-78
2022/03/14 05:27:12;;;;;;;29.67;12.68;;;-0.10;66.10;;;;;;4158684;28;20104;-78
2022/03/14 05:29:14;;;;;;;27.30;11.52;;;-0.10;66.20;;;;;;4162997;28;20046;-77
2022/03/14 05:31:16;;;;;;;30.65;12.80;;;-0.10;65.40;;;;;;4163720;28;20021;-77
2022/03/14 05:33:17;;;;;;;33.03;13.15;;;-0.10;66.10;;;;;;4162028;28;20164;-77
2022/03/14 05:35:18;;;;;;;31.95;12.07;;;-0.10;66.40;;;;;;4181811;28;20037;-77
2022/03/14 05:37:19;;;;;;;29.10;12.25;;;-0.10;66.70;;;;;;4162501;28;20033;-77
2022/03/14 05:39:20;;;;;;;29.77;12.35;;;-0.10;66.70;;;;;;4178362;28;20107;-77
2022/03/14 05:41:20;;;;;;;30.88;12.55;;;-0.10;66.90;;;;;;4182647;28;20041;-77
2022/03/14 05:43:22;;;;;;;27.25;11.85;;;-0.10;67.10;;;;;;4165189;28;20080;-77
2022/03/14 05:45:23;;;;;;;25.65;11.85;;;0.00;67.10;;;;;;4161928;28;20030;-77
2022/03/14 05:47:24;;;;;;;28.38;12.38;;;0.00;67.00;;;;;;4159701;28;20025;-77
2022/03/14 05:49:25;;;;;;;37.50;13.68;;;0.00;67.00;;;;;;4160929;28;20489;-77
2022/03/14 05:51:25;;;;;;;35.13;14.10;;;0.00;67.00;;;;;;4160368;28;20018;-77
2022/03/14 05:53:26;;;;;;;33.22;13.13;;;0.10;67.10;;;;;;4160883;28;20416;-77
2022/03/14 05:55:27;;;;;;;33.42;12.23;;;0.10;67.00;;;;;;4161116;28;20021;-77
2022/03/14 05:57:28;;;;;;;40.15;13.60;;;0.10;66.90;;;;;;4160373;28;20038;-77
2022/03/14 05:59:28;;;;;;;35.13;14.00;;;0.20;67.10;;;;;;4178713;28;20504;-77
2022/03/14 06:01:29;;;;;;;33.13;13.43;;;0.20;66.80;;;;;;4146900;28;20081;-77
2022/03/14 06:03:30;;;;;;;32.30;13.57;;;0.30;66.90;;;;;;4177430;28;20032;-77
2022/03/14 06:05:30;;;;;;;35.40;13.68;;;0.30;66.90;;;;;;4163383;28;20383;-78
2022/03/14 06:07:31;;;;;;;35.50;13.63;;;0.30;66.80;;;;;;4160491;28;20124;-77
2022/03/14 06:09:32;;;;;;;30.63;11.90;;;0.40;66.90;;;;;;4128103;28;20092;-77
2022/03/14 06:11:32;;;;;;;31.80;13.40;;;0.40;66.70;;;;;;4189899;28;20020;-77
2022/03/14 06:13:33;;;;;;;31.98;12.88;;;0.40;66.40;;;;;;4153215;28;20026;-77
2022/03/14 06:15:33;;;;;;;41.47;14.50;;;0.40;66.40;;;;;;4164531;28;20417;-77
2022/03/14 06:17:34;;;;;;;31.85;11.73;;;0.50;66.50;;;;;;4180875;28;20055;-77
2022/03/14 06:19:34;;;;;;;32.13;12.60;;;0.50;66.60;;;;;;4160793;28;20025;-77
2022/03/14 06:21:35;;;;;;;34.65;12.90;;;0.50;66.40;;;;;;4177025;28;20025;-77
2022/03/14 06:23:36;;;;;;;32.13;12.82;;;0.60;66.60;;;;;;4131772;28;20026;-77
2022/03/14 06:25:36;;;;;;;32.92;13.55;;;0.60;66.40;;;;;;4163333;28;20022;-77
2022/03/14 06:27:37;;;;;;;30.38;12.80;;;0.60;66.40;;;;;;4176620;28;20067;-77
2022/03/14 06:29:38;;;;;;;34.10;13.57;;;0.70;66.60;;;;;;4160783;28;20021;-77
2022/03/14 06:31:38;;;;;;;29.50;12.50;;;0.70;66.60;;;;;;4145337;28;20038;-77
2022/03/14 06:33:39;;;;;;;32.28;13.90;;;0.70;66.50;;;;;;4159074;28;20062;-77
2022/03/14 06:35:40;;;;;;;35.70;14.07;;;0.80;66.70;;;;;;4160828;28;20402;-77
2022/03/14 06:37:41;;;;;;;33.35;14.13;;;0.80;66.60;;;;;;4177968;28;20037;-77
2022/03/14 06:39:42;;;;;;;33.15;13.98;;;0.90;66.70;;;;;;4159181;28;20454;-77
2022/03/14 06:41:44;;;;;;;35.47;14.57;;;1.00;66.70;;;;;;4163603;28;20053;-77
2022/03/14 06:43:45;;;;;;;31.45;14.65;;;1.00;66.70;;;;;;4156597;28;20025;-77
2022/03/14 06:45:46;;;;;;;32.60;14.02;;;1.00;66.60;;;;;;4142858;28;20352;-77
2022/03/14 06:47:47;;;;;;;34.88;14.65;;;1.10;66.80;;;;;;4177621;28;20035;-77
2022/03/14 06:49:47;;;;;;;32.42;13.52;;;1.20;66.80;;;;;;4129018;28;20062;-77
2022/03/14 06:51:49;;;;;;;35.13;14.05;;;1.30;66.90;;;;;;4157785;28;20025;-77
2022/03/14 06:53:49;;;;;;;36.08;14.55;;;1.30;66.60;;;;;;4162081;28;20536;-77
2022/03/14 06:55:50;;;;;;;36.28;14.35;;;1.40;66.40;;;;;;4141265;28;20057;-77
2022/03/14 06:57:51;;;;;;;34.60;14.43;;;1.50;66.30;;;;;;4181809;28;20085;-77
2022/03/14 06:59:52;;;;;;;43.10;14.77;;;1.50;66.10;;;;;;4162215;28;20475;-77
2022/03/14 07:01:52;;;;;;;35.38;13.25;;;1.60;66.00;;;;;;4160234;28;20771;-77
2022/03/14 07:03:53;;;;;;;37.00;13.98;;;1.70;65.90;;;;;;4145417;28;20026;-77
2022/03/14 07:05:54;;;;;;;36.65;14.10;;;1.70;65.80;;;;;;4160534;28;20053;-77
2022/03/14 07:07:55;;;;;;;33.97;13.80;;;1.80;65.70;;;;;;4172054;28;20052;-78
2022/03/14 07:09:55;;;;;;;32.17;13.52;;;1.90;65.60;;;;;;4156710;28;20029;-77
2022/03/14 07:11:57;;;;;;;34.08;12.98;;;1.90;65.40;;;;;;4157205;28;20028;-77
2022/03/14 07:13:57;;;;;;;38.92;14.65;;;2.00;65.20;;;;;;4158811;28;20038;-77
2022/03/14 07:15:58;;;;;;;34.92;14.15;;;2.10;65.10;;;;;;4161061;28;20423;-77
2022/03/14 07:17:58;;;;;;;42.67;15.23;;;2.10;65.00;;;;;;4153387;28;20115;-77
2022/03/14 07:19:59;;;;;;;33.88;13.60;;;2.20;64.80;;;;;;4146789;28;20463;-77
2022/03/14 07:22:00;;;;;;;38.10;14.82;;;2.30;64.80;;;;;;4192086;28;20070;-77
2022/03/14 07:24:00;;;;;;;34.17;14.38;;;2.40;64.70;;;;;;4160748;28;20021;-77
2022/03/14 07:26:01;;;;;;;37.70;14.07;;;2.40;64.40;;;;;;4164619;28;20029;-77
2022/03/14 07:28:07;;;;;;;35.10;14.73;;;2.60;64.50;;;;;;4144028;28;20601;-77
2022/03/14 07:30:08;;;;;;;35.90;14.32;;;2.60;64.20;;;;;;4156023;28;20120;-77
2022/03/14 07:32:09;;;;;;;38.75;14.20;;;2.70;64.00;;;;;;4176050;28;20033;-77
2022/03/14 07:34:09;;;;;;;33.08;13.98;;;2.70;63.70;;;;;;4170160;28;20044;-77
2022/03/14 07:36:11;;;;;;;37.58;14.50;;;2.80;63.80;;;;;;4155962;28;20021;-77
2022/03/14 07:38:12;;;;;;;30.73;14.15;;;2.90;63.40;;;;;;4142797;28;20064;-77
2022/03/14 07:40:13;;;;;;;33.45;12.85;;;3.00;63.20;;;;;;4144978;28;20380;-77
2022/03/14 07:42:15;;;;;;;37.00;13.77;;;3.10;63.20;;;;;;4137559;28;20526;-77
2022/03/14 07:44:16;;;;;;;36.53;15.02;;;3.20;63.10;;;;;;4159536;28;20017;-77
2022/03/14 07:46:18;;;;;;;28.83;13.50;;;3.20;62.80;;;;;;4135894;28;20022;-77
2022/03/14 07:48:18;;;;;;;35.92;14.65;;;3.30;62.60;;;;;;4139830;28;20081;-77
2022/03/14 07:50:19;;;;;;;40.00;14.38;;;3.40;62.00;;;;;;4143772;28;20029;-77
2022/03/14 07:52:20;;;;;;;31.35;13.82;;;3.50;61.70;;;;;;4173214;28;20026;-77
2022/03/14 07:54:20;;;;;;;30.80;13.52;;;3.60;61.40;;;;;;4172100;28;20394;-77
2022/03/14 07:56:21;;;;;;;31.67;13.25;;;3.60;60.80;;;;;;4144701;28;20014;-77
2022/03/14 07:58:22;;;;;;;27.27;12.68;;;3.70;60.60;;;;;;4142385;28;20072;-78
2022/03/14 08:00:22;;;;;;;36.63;13.05;;;3.80;60.10;;;;;;4142915;28;20078;-78
2022/03/14 08:02:23;;;;;;;33.90;14.38;;;3.90;59.40;;;;;;4159277;28;20029;-77
2022/03/14 08:04:23;;;;;;;34.42;13.80;;;3.90;59.10;;;;;;4124143;28;20464;-77
2022/03/14 08:06:24;;;;;;;31.13;13.18;;;4.00;58.40;;;;;;4170573;28;20032;-77
2022/03/14 08:08:25;;;;;;;34.40;15.05;;;4.10;58.10;;;;;;4156071;28;20026;-77
2022/03/14 08:10:26;;;;;;;30.27;12.50;;;4.30;57.90;;;;;;4161268;28;20029;-78
2022/03/14 08:12:27;;;;;;;38.88;13.18;;;4.30;57.50;;;;;;4172017;28;20022;-78
2022/03/14 08:14:28;;;;;;;36.10;13.88;;;4.30;57.10;;;;;;4158878;28;20339;-78
2022/03/14 08:16:29;;;;;;;28.50;12.63;;;4.40;57.00;;;;;;4146988;28;20029;-78
2022/03/14 08:18:29;;;;;;;30.02;12.43;;;4.50;56.80;;;;;;4141214;28;20630;-78
2022/03/14 08:20:30;;;;;;;33.53;12.73;;;4.60;56.40;;;;;;4150313;28;20025;-78
2022/03/14 08:22:31;;;;;;;41.63;14.15;;;4.60;56.00;;;;;;4128024;28;20030;-78
2022/03/14 08:24:32;;;;;;;33.08;13.32;;;4.70;55.50;;;;;;4125360;28;20065;-78
2022/03/14 08:26:33;;;;;;;32.70;12.70;;;4.80;54.60;;;;;;4123627;28;20574;-78
2022/03/14 08:28:34;;;;;;;34.08;12.85;;;4.90;54.00;;;;;;4169427;28;20040;-77
2022/03/14 08:30:35;;;;;;;31.25;12.77;;;4.90;53.50;;;;;;4173063;28;20494;-77
2022/03/14 08:32:37;;;;;;;29.35;12.23;;;5.00;53.60;;;;;;4158281;28;20068;-77
2022/03/14 08:34:38;;;;;;;32.05;12.02;;;5.00;51.80;;;;;;4175907;28;20033;-77
2022/03/14 08:36:40;;;;;;;27.70;11.43;;;5.10;52.80;;;;;;4158284;28;20765;-77
2022/03/14 08:38:40;;;;;;;29.20;11.93;;;5.20;52.70;;;;;;4124321;28;20026;-77
2022/03/14 08:40:41;;;;;;;27.05;11.93;;;5.30;52.80;;;;;;4176907;28;20043;-78
2022/03/14 08:42:42;;;;;;;24.45;11.25;;;5.30;52.20;;;;;;4142136;28;20029;-78
2022/03/14 08:44:43;;;;;;;27.52;11.68;;;5.40;52.00;;;;;;4157910;28;20029;-78
2022/03/14 08:46:44;;;;;;;28.67;12.05;;;5.50;51.80;;;;;;4171933;28;20041;-78
2022/03/14 08:48:45;;;;;;;29.75;11.85;;;5.50;51.40;;;;;;4140370;28;20030;-78
2022/03/14 08:50:45;;;;;;;27.98;11.43;;;5.60;51.10;;;;;;4135597;28;20484;-78
2022/03/14 08:52:46;;;;;;;30.50;11.80;;;5.80;50.60;;;;;;4139601;28;20470;-78
2022/03/14 08:54:47;;;;;;;32.42;12.32;;;5.70;49.40;;;;;;4141160;28;20030;-78
2022/03/14 08:56:47;;;;;;;32.53;12.30;;;5.80;48.40;;;;;;4137897;28;20393;-78
2022/03/14 08:58:48;;;;;;;32.88;11.55;;;5.80;49.60;;;;;;4140061;28;20077;-78
2022/03/14 09:00:49;;;;;;;28.88;11.80;;;5.90;49.50;;;;;;4125738;28;20026;-78
2022/03/14 09:02:50;;;;;;;29.50;12.55;;;6.00;49.40;;;;;;4140596;28;20025;-78
2022/03/14 09:04:50;;;;;;;31.10;11.90;;;6.00;48.30;;;;;;4158519;28;20394;-78
2022/03/14 09:06:51;;;;;;;31.13;12.80;;;6.10;48.10;;;;;;4125721;28;20038;-78
2022/03/14 09:08:51;;;;;;;27.02;11.88;;;6.10;48.10;;;;;;4140456;28;20088;-78
2022/03/14 09:10:53;;;;;;;32.08;11.90;;;6.10;48.60;;;;;;4143409;28;20045;-79
2022/03/14 09:12:55;;;;;;;31.75;12.90;;;6.20;49.10;;;;;;4160355;28;20076;-78
2022/03/14 09:14:56;;;;;;;26.45;11.68;;;6.20;48.80;;;;;;4145234;28;20026;-78
2022/03/14 09:16:58;;;;;;;40.05;12.85;;;6.20;49.30;;;;;;4125842;28;20227;-78
2022/03/14 09:18:59;;;;;;;27.15;11.52;;;6.30;48.50;;;;;;4154292;28;20076;-78
2022/03/14 09:21:00;;;;;;;31.08;13.13;;;6.30;49.70;;;;;;4135922;28;20026;-77
2022/03/14 09:23:00;;;;;;;28.88;11.98;;;6.30;48.90;;;;;;4151948;28;21388;-78
2022/03/14 09:25:01;;;;;;;29.80;12.52;;;6.40;48.40;;;;;;4137951;28;20041;-78
2022/03/14 09:27:01;;;;;;;29.00;12.45;;;6.40;48.70;;;;;;4139867;28;20327;-78
2022/03/14 09:29:02;;;;;;;28.35;12.35;;;6.50;48.70;;;;;;4150452;28;20029;-78
2022/03/14 09:31:03;;;;;;;31.67;11.88;;;6.50;49.00;;;;;;4123975;28;20507;-78
2022/03/14 09:33:04;;;;;;;31.95;12.77;;;6.60;49.10;;;;;;4154370;28;20037;-78
2022/03/14 09:35:06;;;;;;;28.33;12.30;;;6.60;49.30;;;;;;4160062;28;20025;-78
2022/03/14 09:37:07;;;;;;;27.02;11.70;;;6.70;48.00;;;;;;4180510;28;20032;-78
2022/03/14 09:39:11;;;;;;;24.55;10.90;;;6.70;48.10;;;;;;4155224;28;20025;-78
2022/03/14 09:41:12;;;;;;;25.85;11.35;;;6.80;48.40;;;;;;4141789;28;20037;-78
2022/03/14 09:43:18;;;;;;;28.88;11.95;;;6.90;48.10;;;;;;4125589;28;20113;-78
2022/03/14 09:45:19;;;;;;;31.35;11.80;;;7.00;47.80;;;;;;4154276;28;20506;-78
2022/03/14 09:47:23;;;;;;;27.30;10.60;;;7.00;46.90;;;;;;4153002;28;20040;-78
2022/03/14 09:49:23;;;;;;;26.15;10.27;;;7.10;47.20;;;;;;4183747;28;20024;-78
2022/03/14 09:51:24;;;;;;;30.60;11.60;;;7.20;46.70;;;;;;4138049;28;20056;-78
2022/03/14 09:53:25;;;;;;;25.85;11.25;;;7.30;46.70;;;;;;4139314;28;20437;-78
2022/03/14 09:55:25;;;;;;;33.83;11.88;;;7.40;46.20;;;;;;4122531;28;20098;-78
2022/03/14 09:57:26;;;;;;;31.33;11.30;;;7.40;45.70;;;;;;4176208;28;20024;-78
2022/03/14 09:59:27;;;;;;;23.38;10.13;;;7.40;46.10;;;;;;4141701;28;20026;-79
2022/03/14 10:01:28;;;;;;;25.90;11.63;;;7.50;46.60;;;;;;4137352;28;20049;-78
2022/03/14 10:03:28;;;;;;;28.10;11.45;;;7.50;46.80;;;;;;4141531;28;20040;-78
2022/03/14 10:05:29;;;;;;;20.98;10.40;;;7.60;45.90;;;;;;4157299;28;20056;-78
2022/03/14 10:07:31;;;;;;;29.92;11.13;;;7.60;46.60;;;;;;4158326;28;20885;-78
2022/03/14 10:09:34;;;;;;;30.83;11.90;;;7.70;46.40;;;;;;4123188;28;20031;-78
2022/03/14 10:11:38;;;;;;;34.35;11.73;;;7.70;46.20;;;;;;4158005;28;20029;-78
2022/03/14 10:13:40;;;;;;;25.58;11.05;;;7.70;46.50;;;;;;4156894;28;20038;-78
2022/03/14 10:15:41;;;;;;;27.65;12.43;;;7.80;46.70;;;;;;4153690;28;20107;-78
2022/03/14 10:17:41;;;;;;;30.05;12.18;;;7.80;46.00;;;;;;4121766;28;20362;-79
2022/03/14 10:19:42;;;;;;;29.98;12.32;;;7.80;46.00;;;;;;4154794;28;20522;-78
2022/03/14 10:21:43;;;;;;;29.00;11.40;;;7.90;45.50;;;;;;4138330;28;20052;-79
2022/03/14 10:23:44;;;;;;;26.92;12.55;;;7.90;46.00;;;;;;4134442;28;20069;-78